createdAt,value
2019-02-16T00:00:48.255Z,8.63
2019-02-16T00:05:51.692Z,6.03
2019-02-16T00:10:55.114Z,11.10
2019-02-16T00:15:58.538Z,7.13
2019-02-16T00:21:04.224Z,7.13
2019-02-16T00:26:07.134Z,7.87
2019-02-16T00:31:10.546Z,9.73
2019-02-16T00:36:13.951Z,9.80
2019-02-16T00:41:17.360Z,7.50
2019-02-16T00:46:20.784Z,6.03
2019-02-16T00:51:24.211Z,7.17
2019-02-16T00:56:27.749Z,9.67
2019-02-16T01:01:31.194Z,8.50
2019-02-16T01:06:34.627Z,7.60
2019-02-16T01:11:38.023Z,7.03
2019-02-16T01:16:41.450Z,9.00
2019-02-16T01:21:44.922Z,8.60
2019-02-16T01:26:48.351Z,10.73
2019-02-16T01:31:51.824Z,8.23
2019-02-16T01:36:55.281Z,9.00
2019-02-16T01:41:58.745Z,7.80
2019-02-16T01:47:02.150Z,9.40
2019-02-16T01:52:05.597Z,9.07
2019-02-16T01:57:09.041Z,7.53
2019-02-16T02:02:12.492Z,8.83
2019-02-16T02:07:15.936Z,7.83
2019-02-16T02:12:19.611Z,9.03
2019-02-16T02:17:23.046Z,9.27
2019-02-16T02:22:26.506Z,8.27
2019-02-16T02:27:29.950Z,8.03
2019-02-16T02:32:33.387Z,9.77
2019-02-16T02:37:36.818Z,8.83
2019-02-16T02:42:40.291Z,10.40
2019-02-16T02:47:43.754Z,10.63
2019-02-16T02:52:47.208Z,11.07
2019-02-16T02:57:50.652Z,8.87
2019-02-16T03:02:54.119Z,8.97
2019-02-16T03:07:57.553Z,9.37
2019-02-16T03:13:00.992Z,10.57
2019-02-16T03:18:04.440Z,13.47
2019-02-16T03:23:11.210Z,14.97
2019-02-16T03:28:17.733Z,14.23
2019-02-16T03:33:27.194Z,15.87
2019-02-16T03:38:48.874Z,13.80
2019-02-16T03:43:52.331Z,15.87
2019-02-16T03:48:55.771Z,14.43
2019-02-16T03:53:59.247Z,22.27
2019-02-16T03:59:02.687Z,18.20
2019-02-16T04:04:06.150Z,19.13
2019-02-16T04:09:09.614Z,15.63
2019-02-16T04:14:13.066Z,12.53
2019-02-16T04:19:16.511Z,16.20
2019-02-16T04:24:19.951Z,14.63
2019-02-16T04:29:23.541Z,14.87
2019-02-16T04:34:26.939Z,16.13
2019-02-16T04:39:30.373Z,20.10
2019-02-16T04:44:33.785Z,16.00
2019-02-16T04:49:37.202Z,17.27
2019-02-16T04:54:40.637Z,15.10
2019-02-16T04:59:44.076Z,14.60
2019-02-16T05:04:47.488Z,16.27
2019-02-16T05:09:50.913Z,20.87
2019-02-16T05:14:54.340Z,18.57
2019-02-16T05:19:57.776Z,18.17
2019-02-16T05:25:01.227Z,16.83
2019-02-16T05:30:07.569Z,17.00
2019-02-16T05:35:11.005Z,14.60
2019-02-16T05:40:14.434Z,14.53
2019-02-16T05:45:17.844Z,14.77
2019-02-16T05:50:21.292Z,14.27
2019-02-16T05:55:24.715Z,14.33
2019-02-16T06:00:29.804Z,13.80
2019-02-16T06:05:33.218Z,12.80
2019-02-16T06:10:36.650Z,13.90
2019-02-16T06:15:40.065Z,12.23
2019-02-16T06:20:43.487Z,12.93
2019-02-16T06:25:47.211Z,13.13
2019-02-16T06:30:50.586Z,13.87
2019-02-16T06:35:55.647Z,12.83
2019-02-16T06:40:59.048Z,10.83
2019-02-16T06:46:02.487Z,12.53
2019-02-16T06:51:05.912Z,11.20
2019-02-16T06:56:10.987Z,13.40
2019-02-16T07:01:14.404Z,13.40
2019-02-16T07:06:17.818Z,10.30
2019-02-16T07:11:21.250Z,10.93
2019-02-16T07:16:32.293Z,11.03
2019-02-16T07:21:35.712Z,13.63
2019-02-16T07:26:39.140Z,10.60
2019-02-16T07:31:42.547Z,13.90
2019-02-16T07:36:45.967Z,10.50
2019-02-16T07:41:49.378Z,12.57
2019-02-16T07:46:54.425Z,9.73
2019-02-16T07:51:59.496Z,13.50
2019-02-16T07:57:20.736Z,14.93
2019-02-16T08:02:28.424Z,12.83
2019-02-16T08:07:50.971Z,11.07
2019-02-16T08:13:02.053Z,11.70
2019-02-16T08:18:12.853Z,12.63
2019-02-16T08:23:17.918Z,14.57
2019-02-16T08:28:22.967Z,11.33
2019-02-16T08:38:49.697Z,16.07
2019-02-16T08:44:09.737Z,18.90
2019-02-16T08:49:23.808Z,18.73
2019-02-16T08:54:28.889Z,11.73
2019-02-16T08:59:33.947Z,10.97
2019-02-16T09:10:08.199Z,14.30
2019-02-16T09:15:16.220Z,10.37
2019-02-16T09:20:26.856Z,9.00
2019-02-16T09:25:31.913Z,9.80
2019-02-16T09:30:36.992Z,11.43
2019-02-16T09:35:50.697Z,7.40
2019-02-16T09:46:31.318Z,7.37
2019-02-16T09:51:42.203Z,9.30
2019-02-16T09:56:47.264Z,8.93
2019-02-16T10:02:07.589Z,7.30
2019-02-16T10:07:27.697Z,9.93
2019-02-16T10:12:38.816Z,9.37
2019-02-16T10:17:49.411Z,7.93
2019-02-16T10:22:54.487Z,7.90
2019-02-16T10:27:59.547Z,6.97
2019-02-16T10:33:13.525Z,8.27
2019-02-16T10:38:34.787Z,9.73
2019-02-16T10:43:48.482Z,10.27
2019-02-16T10:48:58.968Z,10.17
2019-02-16T10:54:04.068Z,10.50
2019-02-16T10:59:09.133Z,15.13
2019-02-16T11:04:38.333Z,12.87
2019-02-16T11:09:42.007Z,18.73
2019-02-16T11:14:56.096Z,18.87
2019-02-16T11:20:16.265Z,14.50
2019-02-16T11:25:36.332Z,12.50
2019-02-16T11:30:41.389Z,14.70
2019-02-16T11:35:52.334Z,16.87
2019-02-16T11:41:06.133Z,17.20
2019-02-16T11:46:22.814Z,18.93
2019-02-16T11:51:27.900Z,16.23
2019-02-16T11:56:32.952Z,15.93
2019-02-16T12:01:54.229Z,12.77
2019-02-16T12:06:59.294Z,12.10
2019-02-16T12:12:07.333Z,14.10
2019-02-16T12:17:17.968Z,15.47
2019-02-16T12:22:28.995Z,17.10
2019-02-16T12:27:36.533Z,16.03
2019-02-16T12:32:53.563Z,16.17
2019-02-16T12:38:10.151Z,23.67
2019-02-16T12:43:24.350Z,17.83
2019-02-16T12:48:29.427Z,13.90
2019-02-16T12:53:50.750Z,16.80
2019-02-16T12:59:04.423Z,13.27
2019-02-16T13:04:15.344Z,14.00
2019-02-16T13:09:20.455Z,15.33
2019-02-16T13:14:41.727Z,13.80
2019-02-16T13:19:49.722Z,14.93
2019-02-16T13:24:57.556Z,20.07
2019-02-16T13:30:16.323Z,14.73
2019-02-16T13:35:24.328Z,12.80
2019-02-16T13:40:38.307Z,14.20
2019-02-16T13:45:59.633Z,14.77
2019-02-16T13:51:07.504Z,14.40
2019-02-16T13:56:29.051Z,12.70
2019-02-16T14:01:42.874Z,18.07
2019-02-16T14:06:50.341Z,13.00
2019-02-16T14:11:55.394Z,12.43
2019-02-16T14:17:00.513Z,14.10
2019-02-16T14:22:03.949Z,15.23
2019-02-16T14:27:07.380Z,15.73
2019-02-16T14:32:10.910Z,13.10
2019-02-16T14:37:18.453Z,11.73
2019-02-16T14:42:21.873Z,14.80
2019-02-16T14:47:25.301Z,18.97
2019-02-16T14:52:28.803Z,17.77
2019-02-16T14:57:32.234Z,21.23
2019-02-16T15:02:35.675Z,14.77
2019-02-16T15:07:39.140Z,16.70
2019-02-16T15:12:42.560Z,19.60
2019-02-16T15:17:46.005Z,19.73
2019-02-16T15:22:49.418Z,14.93
2019-02-16T15:27:52.857Z,15.10
2019-02-16T15:32:56.278Z,16.17
2019-02-16T15:37:59.709Z,16.40
2019-02-16T15:43:03.159Z,15.27
2019-02-16T15:48:06.576Z,18.87
2019-02-16T15:53:10.013Z,52.57
2019-02-16T15:58:13.481Z,33.73
2019-02-16T16:03:16.872Z,20.67
2019-02-16T16:13:51.590Z,17.00
2019-02-16T16:18:56.667Z,44.90
2019-02-16T16:24:19.915Z,57.93
2019-02-16T16:29:28.028Z,25.60
2019-02-16T16:34:35.904Z,25.37
2019-02-16T16:39:43.693Z,23.77
2019-02-16T16:44:54.594Z,18.27
2019-02-16T16:49:59.767Z,15.20
2019-02-16T16:55:07.495Z,19.37
2019-02-16T17:00:24.377Z,23.47
2019-02-16T17:05:29.537Z,22.87
2019-02-16T17:11:01.522Z,21.10
2019-02-16T17:16:06.573Z,16.63
2019-02-16T17:21:14.095Z,14.50
2019-02-16T17:26:37.879Z,23.00
2019-02-16T17:31:52.917Z,15.10
2019-02-16T17:37:00.959Z,18.23
2019-02-16T17:42:14.950Z,14.50
2019-02-16T17:47:32.090Z,15.60
2019-02-16T17:52:53.147Z,19.03
2019-02-16T17:58:01.011Z,13.60
2019-02-16T18:03:15.439Z,15.23
2019-02-16T18:08:20.514Z,18.43
2019-02-16T18:13:41.792Z,16.10
2019-02-16T18:18:52.814Z,16.60
2019-02-16T18:24:06.652Z,15.60
2019-02-16T18:29:23.920Z,13.30
2019-02-16T18:34:34.723Z,16.77
2019-02-16T18:39:55.793Z,20.07
2019-02-16T18:45:00.890Z,20.50
2019-02-16T18:50:06.372Z,14.33
2019-02-16T18:55:11.548Z,16.40
2019-02-16T19:00:25.335Z,18.73
2019-02-16T19:05:30.407Z,17.43
2019-02-16T19:10:53.398Z,17.37
2019-02-16T19:16:13.443Z,21.37
2019-02-16T19:21:18.511Z,18.50
2019-02-16T19:26:23.730Z,20.33
2019-02-16T19:31:40.449Z,21.03
2019-02-16T19:37:01.945Z,21.20
2019-02-16T19:42:22.103Z,19.17
2019-02-16T19:47:29.756Z,22.07
2019-02-16T19:52:43.919Z,21.43
2019-02-16T19:57:48.978Z,23.50
2019-02-16T20:02:59.998Z,38.83
2019-02-16T20:08:11.747Z,19.30
2019-02-16T20:13:16.808Z,17.70
2019-02-16T20:18:21.873Z,23.40
2019-02-16T20:23:42.202Z,20.20
2019-02-16T20:28:56.003Z,21.63
2019-02-16T20:34:06.871Z,26.37
2019-02-16T20:39:14.493Z,21.37
2019-02-16T20:44:22.560Z,19.63
2019-02-16T20:49:39.424Z,20.63
2019-02-16T21:00:09.710Z,24.40
2019-02-16T21:05:29.792Z,24.50
2019-02-16T21:10:43.757Z,21.50
2019-02-16T21:15:48.824Z,23.07
2019-02-16T21:21:10.310Z,22.77
2019-02-16T21:26:36.928Z,28.00
2019-02-16T21:31:54.467Z,19.53
2019-02-16T21:37:05.474Z,20.87
2019-02-16T21:42:19.793Z,23.10
2019-02-16T21:52:53.256Z,24.60
2019-02-16T21:58:08.330Z,28.10
2019-02-16T22:08:47.017Z,29.63
2019-02-16T22:13:50.444Z,27.97
2019-02-16T22:18:53.864Z,24.10
2019-02-16T22:23:57.277Z,24.30
2019-02-16T22:29:00.741Z,24.43
2019-02-16T22:34:04.238Z,23.63
2019-02-16T22:39:07.676Z,24.43
2019-02-16T22:44:11.109Z,25.83
2019-02-16T22:49:14.542Z,26.93
2019-02-16T22:54:17.975Z,24.10
2019-02-16T22:59:21.401Z,29.30
2019-02-16T23:04:24.903Z,26.07
2019-02-16T23:09:28.881Z,31.13
2019-02-16T23:14:32.321Z,23.93
2019-02-16T23:19:35.741Z,23.20
2019-02-16T23:24:39.171Z,25.37
2019-02-16T23:29:42.591Z,26.07
2019-02-16T23:34:46.029Z,25.17
2019-02-16T23:39:49.473Z,29.37
2019-02-16T23:44:52.897Z,24.90
2019-02-16T23:49:56.317Z,24.33
2019-02-16T23:54:59.738Z,27.13
